createdAt,value
2019-03-26T00:00:27.508Z,10.31
2019-03-26T00:04:05.839Z,6.14
2019-03-26T00:07:36.299Z,6.59
2019-03-26T00:11:06.458Z,4.61
2019-03-26T00:14:36.507Z,5.89
2019-03-26T00:18:06.546Z,4.07
2019-03-26T00:21:36.705Z,8.4
2019-03-26T00:25:06.945Z,5.03
2019-03-26T00:28:37.084Z,14.79
2019-03-26T00:32:07.224Z,8.89
2019-03-26T00:35:37.344Z,5.67
2019-03-26T00:39:07.543Z,15.59
2019-03-26T00:42:37.612Z,4.92
2019-03-26T00:46:08.712Z,4.45
2019-03-26T00:49:38.881Z,8.72
2019-03-26T00:53:09.170Z,4.15
2019-03-26T00:56:39.310Z,8.85
2019-03-26T01:00:29.809Z,5.72
2019-03-26T01:04:00.078Z,6.81
2019-03-26T01:07:30.498Z,6.05
2019-03-26T01:11:00.606Z,5.28
2019-03-26T01:14:30.738Z,5.71
2019-03-26T01:18:00.936Z,5.42
2019-03-26T01:21:31.265Z,3.91
2019-03-26T01:25:01.457Z,5.7
2019-03-26T01:28:31.574Z,4.52
2019-03-26T01:32:01.658Z,4.89
2019-03-26T01:35:31.893Z,3.5
2019-03-26T01:39:02.824Z,10.12
2019-03-26T01:42:32.902Z,4.62
2019-03-26T01:46:03.221Z,4.19
2019-03-26T01:49:33.530Z,3.67
2019-03-26T01:53:03.659Z,9.04
2019-03-26T01:56:33.799Z,8.4
2019-03-26T02:00:13.198Z,5.54
2019-03-26T02:03:43.338Z,3.99
2019-03-26T02:07:13.509Z,4.76
2019-03-26T02:10:43.689Z,5.15
2019-03-26T02:14:13.786Z,4.76
2019-03-26T02:17:43.965Z,3.36
2019-03-26T02:21:14.295Z,4.85
2019-03-26T02:24:44.486Z,6.25
2019-03-26T02:28:14.633Z,4.84
2019-03-26T02:31:44.697Z,4.81
2019-03-26T02:35:18.203Z,6.78
2019-03-26T02:38:49.273Z,7.05
2019-03-26T02:42:19.326Z,5.12
2019-03-26T02:45:49.516Z,6.04
2019-03-26T02:49:19.573Z,4.28
2019-03-26T02:52:49.859Z,4.56
2019-03-26T02:56:19.959Z,6.56
2019-03-26T02:59:50.097Z,5.36
2019-03-26T03:03:20.099Z,5.76
2019-03-26T03:06:50.247Z,4.25
2019-03-26T03:10:20.347Z,4.72
2019-03-26T03:13:50.485Z,4.11
2019-03-26T03:17:20.625Z,4.36
2019-03-26T03:20:50.684Z,5.66
2019-03-26T03:24:20.849Z,3.79
2019-03-26T03:27:51.413Z,3.67
2019-03-26T03:31:21.566Z,3.91
2019-03-26T03:34:51.619Z,4.14
2019-03-26T03:38:21.813Z,3.87
2019-03-26T03:41:51.950Z,2.73
2019-03-26T03:45:27.053Z,6.56
2019-03-26T03:48:58.070Z,7.45
2019-03-26T03:52:35.458Z,3.56
2019-03-26T03:56:08.749Z,4.01
2019-03-26T03:59:39.479Z,6.86
2019-03-26T04:00:31.597Z,5.1
2019-03-26T04:04:01.777Z,4.71
2019-03-26T04:07:31.919Z,2.74
2019-03-26T04:11:02.145Z,3.81
2019-03-26T04:14:32.220Z,3.89
2019-03-26T04:18:02.584Z,4.92
2019-03-26T04:21:32.683Z,3.19
2019-03-26T04:25:03.274Z,5.6
2019-03-26T04:28:33.364Z,4.94
2019-03-26T04:32:03.451Z,3.5
2019-03-26T04:35:33.712Z,3.24
2019-03-26T04:39:05.100Z,7.06
2019-03-26T04:42:35.212Z,4.96
2019-03-26T04:46:05.308Z,4
2019-03-26T04:49:35.498Z,3.06
2019-03-26T04:53:05.617Z,5.11
2019-03-26T04:56:35.826Z,3.38
2019-03-26T05:00:06.593Z,4.22
2019-03-26T05:03:36.595Z,2.84
2019-03-26T05:07:06.725Z,3.09
2019-03-26T05:10:36.824Z,4.45
2019-03-26T05:14:06.914Z,11.75
2019-03-26T05:17:36.993Z,8.35
2019-03-26T05:21:07.133Z,7.66
2019-03-26T05:24:37.412Z,5.6
2019-03-26T05:28:07.543Z,4.79
2019-03-26T05:31:37.612Z,8.64
2019-03-26T05:35:08.431Z,3.48
2019-03-26T05:38:38.420Z,5.51
2019-03-26T05:42:08.599Z,5.08
2019-03-26T05:45:38.679Z,4.04
2019-03-26T05:49:08.808Z,6.46
2019-03-26T05:52:38.835Z,6.2
2019-03-26T05:56:08.967Z,15.4
2019-03-26T05:59:39.942Z,10.85
2019-03-26T06:00:20.727Z,13.81
2019-03-26T06:03:50.910Z,13.07
2019-03-26T06:07:21.022Z,15.83
2019-03-26T06:10:51.195Z,11.29
2019-03-26T06:14:21.346Z,10.91
2019-03-26T06:17:51.531Z,11.6
2019-03-26T06:21:21.626Z,8.97
2019-03-26T06:24:51.820Z,20.55
2019-03-26T06:28:21.928Z,13.89
2019-03-26T06:31:52.023Z,10.3
2019-03-26T06:35:22.122Z,8.35
2019-03-26T06:38:52.254Z,11.46
2019-03-26T06:42:22.305Z,10.7
2019-03-26T06:45:52.396Z,10.93
2019-03-26T06:49:22.428Z,9.89
2019-03-26T06:52:52.595Z,6.84
2019-03-26T06:56:22.728Z,8.04
2019-03-26T06:59:53.890Z,4.29
2019-03-26T07:03:23.970Z,3.69
2019-03-26T07:06:54.161Z,12.19
2019-03-26T07:10:26.322Z,15.93
2019-03-26T07:13:56.422Z,10.99
2019-03-26T07:17:27.344Z,6.15
2019-03-26T07:20:57.585Z,6.43
2019-03-26T07:24:27.616Z,8.61
2019-03-26T07:27:57.779Z,9.35
2019-03-26T07:31:27.878Z,6.26
2019-03-26T07:34:58.048Z,8.76
2019-03-26T07:38:28.148Z,7.81
2019-03-26T07:41:58.300Z,7.38
2019-03-26T07:45:28.411Z,10.22
2019-03-26T07:48:58.504Z,8.36
2019-03-26T07:52:28.583Z,12.8
2019-03-26T07:55:58.784Z,9.07
2019-03-26T07:59:28.855Z,19.61
2019-03-26T08:00:29.695Z,10.35
2019-03-26T08:03:59.846Z,9.31
2019-03-26T08:07:29.987Z,10.12
2019-03-26T08:11:00.098Z,12.64
2019-03-26T08:14:30.197Z,15.46
2019-03-26T08:18:00.449Z,10.01
2019-03-26T08:21:30.551Z,9.65
2019-03-26T08:25:00.682Z,9.78
2019-03-26T08:28:30.853Z,13.86
2019-03-26T08:32:01.113Z,9.65
2019-03-26T08:35:31.135Z,12.56
2019-03-26T08:39:01.270Z,14.16
2019-03-26T08:42:31.306Z,11.27
2019-03-26T08:46:01.637Z,16.06
2019-03-26T08:49:31.741Z,15.01
2019-03-26T08:53:01.940Z,16.76
2019-03-26T08:56:32.052Z,12.28
2019-03-26T09:00:03.211Z,14.61
2019-03-26T09:03:34.252Z,18.97
2019-03-26T09:07:04.383Z,13.11
2019-03-26T09:10:34.425Z,12.93
2019-03-26T09:14:04.665Z,13.75
2019-03-26T09:17:34.727Z,13.85
2019-03-26T09:21:04.879Z,11.99
2019-03-26T09:24:34.908Z,12.61
2019-03-26T09:28:05.094Z,14.27
2019-03-26T09:31:35.121Z,15.34
2019-03-26T09:35:06.701Z,16.26
2019-03-26T09:38:39.199Z,16.04
2019-03-26T09:42:09.654Z,12.7
2019-03-26T09:45:39.846Z,18.74
2019-03-26T09:49:10.045Z,12.6
2019-03-26T09:52:40.117Z,12.76
2019-03-26T09:56:10.257Z,11.71
2019-03-26T09:59:40.358Z,10.47
2019-03-26T10:00:16.694Z,12.52
2019-03-26T10:03:47.869Z,10.51
2019-03-26T10:07:21.807Z,8.29
2019-03-26T10:10:52.091Z,11.6
2019-03-26T10:14:22.203Z,10.08
2019-03-26T10:17:52.334Z,10.96
2019-03-26T10:21:22.375Z,11.91
2019-03-26T10:24:52.411Z,11.71
2019-03-26T10:28:22.589Z,12.51
2019-03-26T10:31:53.179Z,8.89
2019-03-26T10:35:23.250Z,13.4
2019-03-26T10:39:05.152Z,9.78
2019-03-26T10:42:35.972Z,10.09
2019-03-26T10:46:06.013Z,14.19
2019-03-26T10:49:36.194Z,9.64
2019-03-26T10:53:06.346Z,8.71
2019-03-26T10:56:36.390Z,8.99
2019-03-26T11:00:07.148Z,9.99
2019-03-26T11:03:37.279Z,8.18
2019-03-26T11:07:07.530Z,13.15
2019-03-26T11:10:37.612Z,9.32
2019-03-26T11:14:07.773Z,19.14
2019-03-26T11:17:37.886Z,18.98
2019-03-26T11:21:08.036Z,11.39
2019-03-26T11:24:38.167Z,10.2
2019-03-26T11:28:08.348Z,16
2019-03-26T11:31:38.469Z,7.51
2019-03-26T11:35:09.347Z,7.31
2019-03-26T11:38:39.397Z,8.6
2019-03-26T11:42:09.491Z,8.22
2019-03-26T11:45:39.579Z,11.1
2019-03-26T11:49:09.729Z,8.99
2019-03-26T11:52:40.015Z,8.81
2019-03-26T11:56:10.198Z,7.47
2019-03-26T11:59:40.342Z,9.64
2019-03-26T12:00:20.873Z,9.62
2019-03-26T12:03:51.037Z,8.44
2019-03-26T12:07:22.127Z,8.26
2019-03-26T12:10:52.188Z,7.87
2019-03-26T12:14:22.359Z,18.55
2019-03-26T12:17:52.483Z,10.64
2019-03-26T12:21:22.582Z,8.56
2019-03-26T12:24:52.743Z,9.51
2019-03-26T12:28:22.978Z,10.98
2019-03-26T12:31:53.096Z,11.75
2019-03-26T12:35:27.864Z,12.97
2019-03-26T12:38:58.126Z,10.79
2019-03-26T12:42:28.247Z,13.54
2019-03-26T12:46:01.605Z,12.17
2019-03-26T12:49:32.066Z,22.85
2019-03-26T12:53:02.255Z,12.41
2019-03-26T12:56:32.263Z,18.98
2019-03-26T13:00:03.508Z,16.95
2019-03-26T13:03:33.573Z,12.86
2019-03-26T13:07:03.702Z,15.8
2019-03-26T13:10:34.911Z,20.32
2019-03-26T13:14:05.079Z,19.07
2019-03-26T13:17:35.281Z,14.22
2019-03-26T13:21:05.334Z,16.41
2019-03-26T13:24:35.465Z,10.89
2019-03-26T13:28:05.559Z,16.84
2019-03-26T13:31:35.701Z,13.86
2019-03-26T13:35:06.094Z,18.56
2019-03-26T13:38:36.295Z,15.69
2019-03-26T13:42:06.530Z,14.65
2019-03-26T13:45:36.554Z,15.85
2019-03-26T13:49:06.666Z,6
2019-03-26T13:52:36.809Z,16.75
2019-03-26T13:56:06.922Z,13.44
2019-03-26T13:59:37.067Z,10.7
2019-03-26T14:00:37.914Z,17.45
2019-03-26T14:04:08.060Z,22.39
2019-03-26T14:07:38.172Z,12.74
2019-03-26T14:11:08.454Z,10.65
2019-03-26T14:14:38.478Z,7.04
2019-03-26T14:18:08.641Z,7.74
2019-03-26T14:21:38.739Z,6.53
2019-03-26T14:25:09.079Z,3.51
2019-03-26T14:28:39.210Z,6.06
2019-03-26T14:32:09.333Z,7.78
2019-03-26T14:35:39.555Z,6.35
2019-03-26T14:39:09.987Z,8.66
2019-03-26T14:42:40.031Z,11.29
2019-03-26T14:46:10.258Z,8.34
2019-03-26T14:49:40.244Z,8.24
2019-03-26T14:53:10.480Z,10
2019-03-26T14:56:40.613Z,5.62
2019-03-26T15:00:11.196Z,5.1
2019-03-26T15:03:41.156Z,10.56
2019-03-26T15:07:11.244Z,4.78
2019-03-26T15:10:41.474Z,28.25
2019-03-26T15:14:12.629Z,3.84
2019-03-26T15:17:42.810Z,9.26
2019-03-26T15:21:13.113Z,7.81
2019-03-26T15:24:43.189Z,11.71
2019-03-26T15:28:13.418Z,7.37
2019-03-26T15:31:43.501Z,8.11
2019-03-26T15:35:13.834Z,7.85
2019-03-26T15:38:43.927Z,6.18
2019-03-26T15:42:14.079Z,8.2
2019-03-26T15:45:44.172Z,12.88
2019-03-26T15:49:14.435Z,6.99
2019-03-26T15:52:44.483Z,9.21
2019-03-26T15:56:14.610Z,5.21
2019-03-26T15:59:44.775Z,8.05
2019-03-26T16:00:27.105Z,10.32
2019-03-26T16:03:57.306Z,11.72
2019-03-26T16:07:27.399Z,8.12
2019-03-26T16:10:57.672Z,9.46
2019-03-26T16:14:28.705Z,8.49
2019-03-26T16:17:58.837Z,10.9
2019-03-26T16:21:28.946Z,13.89
2019-03-26T16:24:59.143Z,7.51
2019-03-26T16:28:29.235Z,12.91
2019-03-26T16:31:59.319Z,15.1
2019-03-26T16:35:29.450Z,14.41
2019-03-26T16:38:59.553Z,19.39
2019-03-26T16:42:29.546Z,12.62
2019-03-26T16:45:59.750Z,17.26
2019-03-26T16:49:29.791Z,11.21
2019-03-26T16:52:59.964Z,19.86
2019-03-26T16:56:30.187Z,11.75
2019-03-26T17:00:00.415Z,20.84
2019-03-26T17:03:31.666Z,12.57
2019-03-26T17:07:01.965Z,11.25
2019-03-26T17:10:32.148Z,15.35
2019-03-26T17:14:02.170Z,14.15
2019-03-26T17:17:32.520Z,12.82
2019-03-26T17:21:02.682Z,17.66
2019-03-26T17:24:32.803Z,17.84
2019-03-26T17:28:03.121Z,17.5
2019-03-26T17:31:33.158Z,17.06
2019-03-26T17:35:03.605Z,17.7
2019-03-26T17:38:33.609Z,12.69
2019-03-26T17:42:16.598Z,18.09
2019-03-26T17:45:47.776Z,14.44
2019-03-26T17:49:17.845Z,15.35
2019-03-26T17:52:47.980Z,13.2
2019-03-26T17:56:18.356Z,16.8
2019-03-26T17:59:48.376Z,16.71
2019-03-26T18:00:33.607Z,16.99
2019-03-26T18:04:03.961Z,13.3
2019-03-26T18:07:34.061Z,17.5
2019-03-26T18:11:04.158Z,24.2
2019-03-26T18:14:34.217Z,22.69
2019-03-26T18:18:05.340Z,19.54
2019-03-26T18:21:35.430Z,16.02
2019-03-26T18:25:05.676Z,19.8
2019-03-26T18:28:35.808Z,18.21
2019-03-26T18:32:06.101Z,17.4
2019-03-26T18:35:36.283Z,15.93
2019-03-26T18:39:06.816Z,21.05
2019-03-26T18:42:43.805Z,14.57
2019-03-26T18:46:14.742Z,16.99
2019-03-26T18:49:44.894Z,14.84
2019-03-26T18:53:15.137Z,24.7
2019-03-26T18:56:45.400Z,23.91
2019-03-26T19:00:30.063Z,15.34
2019-03-26T19:04:00.060Z,20.54
2019-03-26T19:07:30.206Z,17.59
2019-03-26T19:11:00.425Z,20.42
2019-03-26T19:14:30.653Z,14.59
2019-03-26T19:18:00.743Z,16.61
2019-03-26T19:21:31.896Z,19.41
2019-03-26T19:25:02.136Z,18.4
2019-03-26T19:28:32.088Z,18.88
2019-03-26T19:32:02.399Z,21.31
2019-03-26T19:35:32.640Z,17.5
2019-03-26T19:39:06.520Z,16.4
2019-03-26T19:42:36.915Z,20.39
2019-03-26T19:46:07.026Z,19.3
2019-03-26T19:49:37.027Z,17.77
2019-03-26T19:53:07.158Z,21.66
2019-03-26T19:56:37.340Z,23.3
2019-03-26T20:00:14.431Z,22.49
2019-03-26T20:03:44.523Z,19
2019-03-26T20:07:14.644Z,16.31
2019-03-26T20:10:44.936Z,18
2019-03-26T20:14:14.998Z,23.1
2019-03-26T20:17:45.164Z,22.34
2019-03-26T20:21:15.324Z,17.54
2019-03-26T20:24:45.622Z,15.96
2019-03-26T20:28:15.674Z,19.21
2019-03-26T20:31:45.810Z,18.81
2019-03-26T20:35:16.246Z,20.15
2019-03-26T20:38:46.388Z,16.55
2019-03-26T20:42:16.530Z,14.21
2019-03-26T20:45:46.691Z,18.54
2019-03-26T20:49:16.854Z,20.15
2019-03-26T20:52:47.027Z,24.68
2019-03-26T20:56:17.386Z,19.89
2019-03-26T20:59:47.557Z,20.05
2019-03-26T21:03:17.634Z,18.23
2019-03-26T21:06:47.710Z,20.5
2019-03-26T21:10:17.874Z,20.04
2019-03-26T21:13:50.945Z,33.38
2019-03-26T21:17:21.392Z,21.43
2019-03-26T21:20:51.543Z,22.24
2019-03-26T21:24:21.668Z,18.58
2019-03-26T21:27:52.819Z,23.79
2019-03-26T21:31:22.900Z,23.89
2019-03-26T21:34:53.170Z,23.49
2019-03-26T21:38:23.406Z,22.99
2019-03-26T21:41:53.502Z,20.88
2019-03-26T21:45:32.287Z,17.94
2019-03-26T21:49:02.358Z,23.06
2019-03-26T21:52:32.460Z,25.23
2019-03-26T21:56:06.897Z,22.16
2019-03-26T21:59:37.385Z,22.41
2019-03-26T22:00:17.023Z,25.25
2019-03-26T22:03:47.114Z,21.02
2019-03-26T22:07:17.190Z,25.19
2019-03-26T22:10:47.300Z,24.52
2019-03-26T22:14:18.497Z,21.98
2019-03-26T22:17:48.945Z,26.55
2019-03-26T22:21:19.023Z,25.91
2019-03-26T22:24:49.094Z,22.41
2019-03-26T22:28:20.225Z,26.35
2019-03-26T22:31:50.292Z,20.86
2019-03-26T22:35:20.279Z,20.38
2019-03-26T22:38:50.532Z,24.38
2019-03-26T22:42:20.621Z,21.01
2019-03-26T22:45:50.753Z,23.52
2019-03-26T22:49:20.988Z,21.25
2019-03-26T22:52:51.136Z,17.57
2019-03-26T22:56:21.178Z,19.89
2019-03-26T22:59:51.326Z,20.2
2019-03-26T23:03:21.471Z,22.02
2019-03-26T23:06:51.572Z,28.69
2019-03-26T23:10:21.564Z,24.25
2019-03-26T23:13:51.846Z,25.98
2019-03-26T23:17:21.998Z,19.59
2019-03-26T23:20:52.198Z,21.29
2019-03-26T23:24:22.314Z,21.25
2019-03-26T23:27:52.522Z,17.79
2019-03-26T23:31:23.453Z,16.19
2019-03-26T23:34:53.585Z,21.25
2019-03-26T23:38:23.706Z,18.97
2019-03-26T23:41:53.748Z,20.66
2019-03-26T23:45:23.902Z,24.06
2019-03-26T23:48:54.030Z,20.14
2019-03-26T23:52:24.171Z,21.68
2019-03-26T23:55:54.324Z,20.11
2019-03-26T23:59:24.514Z,21.66
